sensor_id;sensor_type;location;lat;lon;timestamp;temperature;humidity
51029;DHT22;37054;52.054;8.600;2023-05-10T00:00:52;20.40;65.00
51029;DHT22;37054;52.054;8.600;2023-05-10T00:03:17;20.40;65.10
51029;DHT22;37054;52.054;8.600;2023-05-10T00:05:43;20.40;65.00
51029;DHT22;37054;52.054;8.600;2023-05-10T00:08:08;20.40;65.10
51029;DHT22;37054;52.054;8.600;2023-05-10T00:10:34;20.30;65.10
51029;DHT22;37054;52.054;8.600;2023-05-10T00:12:59;20.40;65.10
51029;DHT22;37054;52.054;8.600;2023-05-10T00:15:25;20.30;65.20
51029;DHT22;37054;52.054;8.600;2023-05-10T00:17:50;20.30;65.20
51029;DHT22;37054;52.054;8.600;2023-05-10T00:20:16;20.30;65.00
51029;DHT22;37054;52.054;8.600;2023-05-10T00:22:41;20.20;65.00
51029;DHT22;37054;52.054;8.600;2023-05-10T00:25:07;20.20;65.20
51029;DHT22;37054;52.054;8.600;2023-05-10T00:27:32;20.20;65.30
51029;DHT22;37054;52.054;8.600;2023-05-10T00:29:58;20.20;65.50
51029;DHT22;37054;52.054;8.600;2023-05-10T00:32:23;20.20;65.60
51029;DHT22;37054;52.054;8.600;2023-05-10T00:34:49;20.20;65.70
51029;DHT22;37054;52.054;8.600;2023-05-10T00:37:14;20.20;65.80
51029;DHT22;37054;52.054;8.600;2023-05-10T00:39:39;20.20;65.90
51029;DHT22;37054;52.054;8.600;2023-05-10T00:42:05;20.30;65.80
51029;DHT22;37054;52.054;8.600;2023-05-10T00:44:30;20.30;65.70
51029;DHT22;37054;52.054;8.600;2023-05-10T00:46:56;20.20;65.70
51029;DHT22;37054;52.054;8.600;2023-05-10T00:49:22;20.20;65.70
51029;DHT22;37054;52.054;8.600;2023-05-10T00:51:48;20.20;65.80
51029;DHT22;37054;52.054;8.600;2023-05-10T00:54:14;20.20;65.90
51029;DHT22;37054;52.054;8.600;2023-05-10T00:56:40;20.20;65.90
51029;DHT22;37054;52.054;8.600;2023-05-10T00:59:05;20.20;65.90
51029;DHT22;37054;52.054;8.600;2023-05-10T01:01:31;20.20;65.90
51029;DHT22;37054;52.054;8.600;2023-05-10T01:03:57;20.20;65.90
51029;DHT22;37054;52.054;8.600;2023-05-10T01:06:23;20.20;65.80
51029;DHT22;37054;52.054;8.600;2023-05-10T01:08:48;20.20;65.80
51029;DHT22;37054;52.054;8.600;2023-05-10T01:11:14;20.20;65.90
51029;DHT22;37054;52.054;8.600;2023-05-10T01:13:40;20.20;65.90
51029;DHT22;37054;52.054;8.600;2023-05-10T01:16:06;20.20;65.90
51029;DHT22;37054;52.054;8.600;2023-05-10T01:18:35;20.20;65.90
51029;DHT22;37054;52.054;8.600;2023-05-10T01:23:36;20.20;66.10
51029;DHT22;37054;52.054;8.600;2023-05-10T01:36:30;20.20;66.20
51029;DHT22;37054;52.054;8.600;2023-05-10T01:41:41;20.20;66.00
51029;DHT22;37054;52.054;8.600;2023-05-10T01:46:41;20.20;66.20
51029;DHT22;37054;52.054;8.600;2023-05-10T01:49:41;20.20;66.20
51029;DHT22;37054;52.054;8.600;2023-05-10T01:52:08;20.20;66.20
51029;DHT22;37054;52.054;8.600;2023-05-10T01:54:34;20.20;66.00
51029;DHT22;37054;52.054;8.600;2023-05-10T01:57:02;20.20;65.90
51029;DHT22;37054;52.054;8.600;2023-05-10T01:59:30;20.20;66.10
51029;DHT22;37054;52.054;8.600;2023-05-10T02:01:57;20.20;66.00
51029;DHT22;37054;52.054;8.600;2023-05-10T02:04:23;20.10;66.10
51029;DHT22;37054;52.054;8.600;2023-05-10T02:06:50;20.20;66.20
51029;DHT22;37054;52.054;8.600;2023-05-10T02:09:16;20.20;66.30
51029;DHT22;37054;52.054;8.600;2023-05-10T02:11:42;20.20;66.30
51029;DHT22;37054;52.054;8.600;2023-05-10T02:14:09;20.20;66.20
51029;DHT22;37054;52.054;8.600;2023-05-10T02:16:35;20.20;66.10
51029;DHT22;37054;52.054;8.600;2023-05-10T02:19:01;20.10;66.10
51029;DHT22;37054;52.054;8.600;2023-05-10T02:21:27;20.10;66.20
51029;DHT22;37054;52.054;8.600;2023-05-10T02:23:53;20.00;66.10
51029;DHT22;37054;52.054;8.600;2023-05-10T02:26:19;19.90;66.00
51029;DHT22;37054;52.054;8.600;2023-05-10T02:28:46;19.90;66.00
51029;DHT22;37054;52.054;8.600;2023-05-10T02:31:12;19.90;66.00
51029;DHT22;37054;52.054;8.600;2023-05-10T02:33:39;19.80;66.10
51029;DHT22;37054;52.054;8.600;2023-05-10T02:36:05;19.80;66.20
51029;DHT22;37054;52.054;8.600;2023-05-10T02:38:31;19.80;66.10
51029;DHT22;37054;52.054;8.600;2023-05-10T02:40:57;19.70;66.30
51029;DHT22;37054;52.054;8.600;2023-05-10T02:43:24;19.70;66.20
51029;DHT22;37054;52.054;8.600;2023-05-10T02:45:49;19.70;66.10
51029;DHT22;37054;52.054;8.600;2023-05-10T02:48:15;19.70;66.10
51029;DHT22;37054;52.054;8.600;2023-05-10T02:50:42;19.70;66.20
51029;DHT22;37054;52.054;8.600;2023-05-10T02:53:15;19.60;66.30
51029;DHT22;37054;52.054;8.600;2023-05-10T02:55:40;19.60;66.30
51029;DHT22;37054;52.054;8.600;2023-05-10T02:58:07;19.60;66.30
51029;DHT22;37054;52.054;8.600;2023-05-10T03:00:32;19.60;66.20
51029;DHT22;37054;52.054;8.600;2023-05-10T03:02:58;19.60;66.30
51029;DHT22;37054;52.054;8.600;2023-05-10T03:05:23;19.60;66.30
51029;DHT22;37054;52.054;8.600;2023-05-10T03:07:49;19.60;66.20
51029;DHT22;37054;52.054;8.600;2023-05-10T03:10:15;19.60;66.30
51029;DHT22;37054;52.054;8.600;2023-05-10T03:12:51;19.60;66.20
51029;DHT22;37054;52.054;8.600;2023-05-10T03:20:41;19.60;66.50
51029;DHT22;37054;52.054;8.600;2023-05-10T03:23:05;19.60;66.60
51029;DHT22;37054;52.054;8.600;2023-05-10T03:25:33;19.60;66.50
51029;DHT22;37054;52.054;8.600;2023-05-10T03:27:59;19.60;66.60
51029;DHT22;37054;52.054;8.600;2023-05-10T03:30:26;19.60;66.60
51029;DHT22;37054;52.054;8.600;2023-05-10T03:32:52;19.60;66.60
51029;DHT22;37054;52.054;8.600;2023-05-10T03:35:17;19.70;66.60
51029;DHT22;37054;52.054;8.600;2023-05-10T03:37:42;19.70;66.60
51029;DHT22;37054;52.054;8.600;2023-05-10T03:40:08;19.70;66.60
51029;DHT22;37054;52.054;8.600;2023-05-10T03:42:34;19.70;66.70
51029;DHT22;37054;52.054;8.600;2023-05-10T03:44:59;19.70;66.50
51029;DHT22;37054;52.054;8.600;2023-05-10T03:47:25;19.70;66.60
51029;DHT22;37054;52.054;8.600;2023-05-10T03:49:50;19.70;66.60
51029;DHT22;37054;52.054;8.600;2023-05-10T03:52:16;19.70;66.50
51029;DHT22;37054;52.054;8.600;2023-05-10T03:54:41;19.70;66.60
51029;DHT22;37054;52.054;8.600;2023-05-10T03:57:07;19.70;66.50
51029;DHT22;37054;52.054;8.600;2023-05-10T03:59:32;19.70;66.50
51029;DHT22;37054;52.054;8.600;2023-05-10T04:01:57;19.70;66.40
51029;DHT22;37054;52.054;8.600;2023-05-10T04:04:23;19.70;66.40
51029;DHT22;37054;52.054;8.600;2023-05-10T04:06:48;19.70;66.50
51029;DHT22;37054;52.054;8.600;2023-05-10T04:09:14;19.70;66.50
51029;DHT22;37054;52.054;8.600;2023-05-10T04:11:39;19.70;66.50
51029;DHT22;37054;52.054;8.600;2023-05-10T04:14:05;19.60;66.50
51029;DHT22;37054;52.054;8.600;2023-05-10T04:16:30;19.60;66.40
51029;DHT22;37054;52.054;8.600;2023-05-10T04:18:56;19.50;66.20
51029;DHT22;37054;52.054;8.600;2023-05-10T04:21:21;19.50;66.40
51029;DHT22;37054;52.054;8.600;2023-05-10T04:23:47;19.50;66.60
51029;DHT22;37054;52.054;8.600;2023-05-10T04:26:12;19.50;66.50
51029;DHT22;37054;52.054;8.600;2023-05-10T04:28:38;19.50;66.60
51029;DHT22;37054;52.054;8.600;2023-05-10T04:31:04;19.50;66.40
51029;DHT22;37054;52.054;8.600;2023-05-10T04:33:30;19.40;66.40
51029;DHT22;37054;52.054;8.600;2023-05-10T04:35:55;19.40;66.40
51029;DHT22;37054;52.054;8.600;2023-05-10T04:38:20;19.40;66.50
51029;DHT22;37054;52.054;8.600;2023-05-10T04:40:46;19.40;66.20
51029;DHT22;37054;52.054;8.600;2023-05-10T04:43:11;19.30;66.00
51029;DHT22;37054;52.054;8.600;2023-05-10T04:45:37;19.30;65.90
51029;DHT22;37054;52.054;8.600;2023-05-10T04:48:02;19.20;65.90
51029;DHT22;37054;52.054;8.600;2023-05-10T04:50:27;19.20;66.00
51029;DHT22;37054;52.054;8.600;2023-05-10T04:52:53;19.10;66.10
51029;DHT22;37054;52.054;8.600;2023-05-10T04:55:18;19.10;66.30
51029;DHT22;37054;52.054;8.600;2023-05-10T04:57:44;19.10;66.30
51029;DHT22;37054;52.054;8.600;2023-05-10T05:00:10;19.10;66.40
51029;DHT22;37054;52.054;8.600;2023-05-10T05:02:36;19.10;66.50
51029;DHT22;37054;52.054;8.600;2023-05-10T05:05:01;19.10;66.60
51029;DHT22;37054;52.054;8.600;2023-05-10T05:07:26;19.10;66.60
51029;DHT22;37054;52.054;8.600;2023-05-10T05:09:52;19.10;66.60
51029;DHT22;37054;52.054;8.600;2023-05-10T05:12:17;19.20;66.60
51029;DHT22;37054;52.054;8.600;2023-05-10T05:14:43;19.20;66.70
51029;DHT22;37054;52.054;8.600;2023-05-10T05:17:08;19.20;66.70
51029;DHT22;37054;52.054;8.600;2023-05-10T05:19:34;19.20;66.70
51029;DHT22;37054;52.054;8.600;2023-05-10T05:21:59;19.30;66.70
51029;DHT22;37054;52.054;8.600;2023-05-10T05:24:24;19.30;66.70
51029;DHT22;37054;52.054;8.600;2023-05-10T05:26:50;19.30;66.80
51029;DHT22;37054;52.054;8.600;2023-05-10T05:29:16;19.30;66.80
51029;DHT22;37054;52.054;8.600;2023-05-10T05:31:41;19.40;66.90
51029;DHT22;37054;52.054;8.600;2023-05-10T05:34:06;19.40;66.90
51029;DHT22;37054;52.054;8.600;2023-05-10T05:36:32;19.50;66.80
51029;DHT22;37054;52.054;8.600;2023-05-10T05:38:58;19.50;66.70
51029;DHT22;37054;52.054;8.600;2023-05-10T05:41:23;19.50;66.60
51029;DHT22;37054;52.054;8.600;2023-05-10T05:43:49;19.50;66.70
51029;DHT22;37054;52.054;8.600;2023-05-10T05:46:15;19.50;66.60
51029;DHT22;37054;52.054;8.600;2023-05-10T05:48:40;19.60;66.60
51029;DHT22;37054;52.054;8.600;2023-05-10T05:51:06;19.60;66.60
51029;DHT22;37054;52.054;8.600;2023-05-10T05:53:31;19.60;66.50
51029;DHT22;37054;52.054;8.600;2023-05-10T05:55:58;19.60;66.50
51029;DHT22;37054;52.054;8.600;2023-05-10T05:58:23;19.60;66.50
51029;DHT22;37054;52.054;8.600;2023-05-10T06:00:49;19.60;66.50
51029;DHT22;37054;52.054;8.600;2023-05-10T06:03:15;19.60;66.40
51029;DHT22;37054;52.054;8.600;2023-05-10T06:05:40;19.60;66.30
51029;DHT22;37054;52.054;8.600;2023-05-10T06:08:06;19.50;66.50
51029;DHT22;37054;52.054;8.600;2023-05-10T06:10:31;19.60;66.60
51029;DHT22;37054;52.054;8.600;2023-05-10T06:12:56;19.60;66.60
51029;DHT22;37054;52.054;8.600;2023-05-10T06:15:22;19.70;66.80
51029;DHT22;37054;52.054;8.600;2023-05-10T06:17:47;19.70;66.70
51029;DHT22;37054;52.054;8.600;2023-05-10T06:20:14;19.70;66.60
51029;DHT22;37054;52.054;8.600;2023-05-10T06:22:40;19.80;66.60
51029;DHT22;37054;52.054;8.600;2023-05-10T06:25:06;19.80;66.30
51029;DHT22;37054;52.054;8.600;2023-05-10T06:27:31;19.70;66.10
51029;DHT22;37054;52.054;8.600;2023-05-10T06:29:57;19.70;66.20
51029;DHT22;37054;52.054;8.600;2023-05-10T06:32:22;19.70;66.40
51029;DHT22;37054;52.054;8.600;2023-05-10T06:34:48;19.70;66.60
51029;DHT22;37054;52.054;8.600;2023-05-10T06:37:13;19.80;66.60
51029;DHT22;37054;52.054;8.600;2023-05-10T06:39:39;19.80;66.70
51029;DHT22;37054;52.054;8.600;2023-05-10T06:42:04;19.80;66.90
51029;DHT22;37054;52.054;8.600;2023-05-10T06:44:30;19.90;66.70
51029;DHT22;37054;52.054;8.600;2023-05-10T06:46:55;19.90;66.40
51029;DHT22;37054;52.054;8.600;2023-05-10T06:49:21;19.90;66.40
51029;DHT22;37054;52.054;8.600;2023-05-10T06:51:47;20.00;66.80
51029;DHT22;37054;52.054;8.600;2023-05-10T06:54:13;20.00;66.70
51029;DHT22;37054;52.054;8.600;2023-05-10T06:56:39;20.10;66.80
51029;DHT22;37054;52.054;8.600;2023-05-10T06:59:04;20.20;66.80
51029;DHT22;37054;52.054;8.600;2023-05-10T07:01:29;20.30;66.80
51029;DHT22;37054;52.054;8.600;2023-05-10T07:03:55;20.30;66.80
51029;DHT22;37054;52.054;8.600;2023-05-10T07:06:20;20.40;66.60
51029;DHT22;37054;52.054;8.600;2023-05-10T07:08:46;20.40;66.70
51029;DHT22;37054;52.054;8.600;2023-05-10T07:11:11;20.40;66.30
51029;DHT22;37054;52.054;8.600;2023-05-10T07:13:37;20.50;66.40
51029;DHT22;37054;52.054;8.600;2023-05-10T07:16:04;20.50;66.40
51029;DHT22;37054;52.054;8.600;2023-05-10T07:18:31;20.50;66.60
51029;DHT22;37054;52.054;8.600;2023-05-10T07:20:56;20.70;66.70
51029;DHT22;37054;52.054;8.600;2023-05-10T07:23:22;20.70;66.70
51029;DHT22;37054;52.054;8.600;2023-05-10T07:25:48;20.80;66.70
51029;DHT22;37054;52.054;8.600;2023-05-10T07:28:14;20.90;66.60
51029;DHT22;37054;52.054;8.600;2023-05-10T07:30:39;21.00;66.80
51029;DHT22;37054;52.054;8.600;2023-05-10T07:33:05;21.20;66.70
51029;DHT22;37054;52.054;8.600;2023-05-10T07:35:30;21.30;66.80
51029;DHT22;37054;52.054;8.600;2023-05-10T07:37:56;21.40;66.80
51029;DHT22;37054;52.054;8.600;2023-05-10T07:40:21;21.50;66.30
51029;DHT22;37054;52.054;8.600;2023-05-10T07:42:47;21.60;65.90
51029;DHT22;37054;52.054;8.600;2023-05-10T07:45:12;21.60;65.50
51029;DHT22;37054;52.054;8.600;2023-05-10T07:47:37;21.70;65.50
51029;DHT22;37054;52.054;8.600;2023-05-10T07:50:03;21.70;65.50
51029;DHT22;37054;52.054;8.600;2023-05-10T07:52:29;21.70;65.80
51029;DHT22;37054;52.054;8.600;2023-05-10T07:54:54;21.70;65.50
51029;DHT22;37054;52.054;8.600;2023-05-10T07:57:22;21.80;65.80
51029;DHT22;37054;52.054;8.600;2023-05-10T07:59:47;21.80;65.80
51029;DHT22;37054;52.054;8.600;2023-05-10T08:02:13;21.80;65.80
51029;DHT22;37054;52.054;8.600;2023-05-10T08:04:38;22.00;66.30
51029;DHT22;37054;52.054;8.600;2023-05-10T08:07:03;22.10;66.30
51029;DHT22;37054;52.054;8.600;2023-05-10T08:09:29;22.30;66.30
51029;DHT22;37054;52.054;8.600;2023-05-10T08:11:54;22.40;66.20
51029;DHT22;37054;52.054;8.600;2023-05-10T08:14:20;22.40;65.70
51029;DHT22;37054;52.054;8.600;2023-05-10T08:16:45;22.50;65.40
51029;DHT22;37054;52.054;8.600;2023-05-10T08:19:11;22.60;65.30
51029;DHT22;37054;52.054;8.600;2023-05-10T08:21:36;22.70;65.10
51029;DHT22;37054;52.054;8.600;2023-05-10T08:24:02;22.80;65.50
51029;DHT22;37054;52.054;8.600;2023-05-10T08:26:27;22.90;65.30
51029;DHT22;37054;52.054;8.600;2023-05-10T08:28:53;23.00;64.90
51029;DHT22;37054;52.054;8.600;2023-05-10T08:31:18;23.10;65.20
51029;DHT22;37054;52.054;8.600;2023-05-10T08:33:44;23.20;65.40
51029;DHT22;37054;52.054;8.600;2023-05-10T08:36:09;23.30;65.20
51029;DHT22;37054;52.054;8.600;2023-05-10T08:38:35;23.40;65.10
51029;DHT22;37054;52.054;8.600;2023-05-10T08:41:00;23.50;64.70
51029;DHT22;37054;52.054;8.600;2023-05-10T08:43:27;23.50;64.50
51029;DHT22;37054;52.054;8.600;2023-05-10T08:45:54;23.50;64.70
51029;DHT22;37054;52.054;8.600;2023-05-10T08:48:20;23.70;65.10
51029;DHT22;37054;52.054;8.600;2023-05-10T08:50:47;23.90;65.80
51029;DHT22;37054;52.054;8.600;2023-05-10T08:53:13;24.30;65.50
51029;DHT22;37054;52.054;8.600;2023-05-10T08:55:40;24.80;65.90
51029;DHT22;37054;52.054;8.600;2023-05-10T08:58:07;25.30;65.90
51029;DHT22;37054;52.054;8.600;2023-05-10T09:00:33;25.60;65.40
51029;DHT22;37054;52.054;8.600;2023-05-10T09:02:58;25.70;64.90
51029;DHT22;37054;52.054;8.600;2023-05-10T09:05:24;25.80;64.20
51029;DHT22;37054;52.054;8.600;2023-05-10T09:07:50;25.80;63.10
51029;DHT22;37054;52.054;8.600;2023-05-10T09:10:15;25.70;63.10
51029;DHT22;37054;52.054;8.600;2023-05-10T09:12:41;25.80;63.20
51029;DHT22;37054;52.054;8.600;2023-05-10T09:15:07;25.70;63.50
51029;DHT22;37054;52.054;8.600;2023-05-10T09:17:32;25.70;63.20
51029;DHT22;37054;52.054;8.600;2023-05-10T09:19:59;25.60;63.00
51029;DHT22;37054;52.054;8.600;2023-05-10T09:22:24;25.40;62.40
51029;DHT22;37054;52.054;8.600;2023-05-10T09:27:34;24.50;61.60
51029;DHT22;37054;52.054;8.600;2023-05-10T09:30:00;23.80;61.30
51029;DHT22;37054;52.054;8.600;2023-05-10T09:32:38;23.40;61.80
51029;DHT22;37054;52.054;8.600;2023-05-10T09:35:07;23.10;63.00
51029;DHT22;37054;52.054;8.600;2023-05-10T09:37:33;23.00;64.20
51029;DHT22;37054;52.054;8.600;2023-05-10T09:39:58;22.90;64.40
51029;DHT22;37054;52.054;8.600;2023-05-10T09:42:24;22.90;65.00
51029;DHT22;37054;52.054;8.600;2023-05-10T09:44:49;23.00;65.30
51029;DHT22;37054;52.054;8.600;2023-05-10T09:47:17;23.00;66.10
51029;DHT22;37054;52.054;8.600;2023-05-10T09:49:44;23.20;66.10
51029;DHT22;37054;52.054;8.600;2023-05-10T09:52:09;23.30;66.40
51029;DHT22;37054;52.054;8.600;2023-05-10T09:54:35;23.70;66.60
51029;DHT22;37054;52.054;8.600;2023-05-10T09:57:01;24.10;66.80
51029;DHT22;37054;52.054;8.600;2023-05-10T09:59:27;24.40;66.30
51029;DHT22;37054;52.054;8.600;2023-05-10T10:01:53;24.80;66.70
51029;DHT22;37054;52.054;8.600;2023-05-10T10:04:20;25.30;65.30
51029;DHT22;37054;52.054;8.600;2023-05-10T10:06:46;25.80;65.10
51029;DHT22;37054;52.054;8.600;2023-05-10T10:09:12;26.20;63.90
51029;DHT22;37054;52.054;8.600;2023-05-10T10:11:38;26.70;64.30
51029;DHT22;37054;52.054;8.600;2023-05-10T10:14:04;27.40;64.80
51029;DHT22;37054;52.054;8.600;2023-05-10T10:16:30;28.00;64.10
51029;DHT22;37054;52.054;8.600;2023-05-10T10:18:56;28.30;63.00
51029;DHT22;37054;52.054;8.600;2023-05-10T10:21:22;28.70;62.90
51029;DHT22;37054;52.054;8.600;2023-05-10T10:23:47;29.00;62.40
51029;DHT22;37054;52.054;8.600;2023-05-10T10:26:12;29.40;62.10
51029;DHT22;37054;52.054;8.600;2023-05-10T10:28:51;29.70;61.90
51029;DHT22;37054;52.054;8.600;2023-05-10T10:31:36;29.90;61.40
51029;DHT22;37054;52.054;8.600;2023-05-10T10:34:10;30.00;61.10
51029;DHT22;37054;52.054;8.600;2023-05-10T10:36:42;29.80;60.70
51029;DHT22;37054;52.054;8.600;2023-05-10T10:39:09;29.50;60.90
51029;DHT22;37054;52.054;8.600;2023-05-10T10:41:35;29.20;60.80
51029;DHT22;37054;52.054;8.600;2023-05-10T10:52:13;31.10;61.60
51029;DHT22;37054;52.054;8.600;2023-05-10T10:54:39;31.50;60.20
51029;DHT22;37054;52.054;8.600;2023-05-10T10:57:13;32.20;59.50
51029;DHT22;37054;52.054;8.600;2023-05-10T10:59:42;32.70;57.50
51029;DHT22;37054;52.054;8.600;2023-05-10T11:02:09;33.40;57.70
51029;DHT22;37054;52.054;8.600;2023-05-10T11:04:44;34.10;56.80
51029;DHT22;37054;52.054;8.600;2023-05-10T11:07:17;34.50;57.30
51029;DHT22;37054;52.054;8.600;2023-05-10T11:09:44;34.60;56.00
51029;DHT22;37054;52.054;8.600;2023-05-10T11:12:09;34.00;54.30
51029;DHT22;37054;52.054;8.600;2023-05-10T11:14:35;33.40;55.00
51029;DHT22;37054;52.054;8.600;2023-05-10T11:17:01;32.80;55.10
51029;DHT22;37054;52.054;8.600;2023-05-10T11:19:29;32.20;57.00
51029;DHT22;37054;52.054;8.600;2023-05-10T11:24:29;31.40;56.80
51029;DHT22;37054;52.054;8.600;2023-05-10T11:26:54;31.10;57.10
51029;DHT22;37054;52.054;8.600;2023-05-10T11:29:20;31.10;58.60
51029;DHT22;37054;52.054;8.600;2023-05-10T11:31:46;31.70;59.40
51029;DHT22;37054;52.054;8.600;2023-05-10T11:34:13;32.40;58.30
51029;DHT22;37054;52.054;8.600;2023-05-10T11:36:50;33.10;56.70
51029;DHT22;37054;52.054;8.600;2023-05-10T11:39:16;33.70;56.00
51029;DHT22;37054;52.054;8.600;2023-05-10T11:41:41;34.30;56.00
51029;DHT22;37054;52.054;8.600;2023-05-10T11:44:08;34.80;55.40
51029;DHT22;37054;52.054;8.600;2023-05-10T11:46:34;35.30;55.30
51029;DHT22;37054;52.054;8.600;2023-05-10T11:49:00;35.70;54.50
51029;DHT22;37054;52.054;8.600;2023-05-10T11:51:35;36.20;53.30
51029;DHT22;37054;52.054;8.600;2023-05-10T11:54:07;36.70;53.30
51029;DHT22;37054;52.054;8.600;2023-05-10T11:56:34;37.10;51.90
51029;DHT22;37054;52.054;8.600;2023-05-10T11:59:00;37.50;51.10
51029;DHT22;37054;52.054;8.600;2023-05-10T12:01:27;37.80;50.40
51029;DHT22;37054;52.054;8.600;2023-05-10T12:03:54;38.20;49.60
51029;DHT22;37054;52.054;8.600;2023-05-10T12:06:19;37.80;47.00
51029;DHT22;37054;52.054;8.600;2023-05-10T12:08:46;37.00;48.20
51029;DHT22;37054;52.054;8.600;2023-05-10T12:11:12;36.00;49.00
51029;DHT22;37054;52.054;8.600;2023-05-10T12:13:41;35.20;51.00
51029;DHT22;37054;52.054;8.600;2023-05-10T12:16:16;34.50;52.10
51029;DHT22;37054;52.054;8.600;2023-05-10T12:18:42;34.00;52.40
51029;DHT22;37054;52.054;8.600;2023-05-10T12:21:09;33.40;52.00
51029;DHT22;37054;52.054;8.600;2023-05-10T12:23:35;32.80;50.90
51029;DHT22;37054;52.054;8.600;2023-05-10T12:26:04;32.30;52.50
51029;DHT22;37054;52.054;8.600;2023-05-10T12:28:30;31.80;51.00
51029;DHT22;37054;52.054;8.600;2023-05-10T12:30:55;31.30;52.30
51029;DHT22;37054;52.054;8.600;2023-05-10T12:33:22;30.90;53.50
51029;DHT22;37054;52.054;8.600;2023-05-10T12:35:52;30.70;54.60
51029;DHT22;37054;52.054;8.600;2023-05-10T12:40:59;30.30;53.40
51029;DHT22;37054;52.054;8.600;2023-05-10T12:43:25;30.20;53.10
51029;DHT22;37054;52.054;8.600;2023-05-10T12:45:50;30.10;52.70
51029;DHT22;37054;52.054;8.600;2023-05-10T12:48:16;30.10;53.80
51029;DHT22;37054;52.054;8.600;2023-05-10T12:50:41;30.20;52.40
51029;DHT22;37054;52.054;8.600;2023-05-10T12:53:07;30.10;51.60
51029;DHT22;37054;52.054;8.600;2023-05-10T12:55:32;29.80;51.30
51029;DHT22;37054;52.054;8.600;2023-05-10T12:57:58;29.50;51.90
51029;DHT22;37054;52.054;8.600;2023-05-10T13:00:23;29.30;52.40
51029;DHT22;37054;52.054;8.600;2023-05-10T13:02:48;29.10;54.80
51029;DHT22;37054;52.054;8.600;2023-05-10T13:05:14;29.20;54.80
51029;DHT22;37054;52.054;8.600;2023-05-10T13:07:39;29.10;55.00
51029;DHT22;37054;52.054;8.600;2023-05-10T13:10:06;29.20;56.70
51029;DHT22;37054;52.054;8.600;2023-05-10T13:12:31;29.40;57.20
51029;DHT22;37054;52.054;8.600;2023-05-10T13:14:57;30.00;57.00
51029;DHT22;37054;52.054;8.600;2023-05-10T13:17:22;30.70;56.00
51029;DHT22;37054;52.054;8.600;2023-05-10T13:19:48;31.10;55.60
51029;DHT22;37054;52.054;8.600;2023-05-10T13:22:13;31.40;52.80
51029;DHT22;37054;52.054;8.600;2023-05-10T13:24:38;31.90;52.10
51029;DHT22;37054;52.054;8.600;2023-05-10T13:27:04;32.50;48.60
51029;DHT22;37054;52.054;8.600;2023-05-10T13:29:30;33.30;48.90
51029;DHT22;37054;52.054;8.600;2023-05-10T13:31:55;33.40;45.90
51029;DHT22;37054;52.054;8.600;2023-05-10T13:34:21;33.00;46.40
51029;DHT22;37054;52.054;8.600;2023-05-10T13:36:47;32.30;46.80
51029;DHT22;37054;52.054;8.600;2023-05-10T13:39:12;31.70;48.90
51029;DHT22;37054;52.054;8.600;2023-05-10T13:41:38;31.10;49.20
51029;DHT22;37054;52.054;8.600;2023-05-10T13:44:03;30.70;50.00
51029;DHT22;37054;52.054;8.600;2023-05-10T13:46:29;30.30;50.10
51029;DHT22;37054;52.054;8.600;2023-05-10T13:48:55;29.90;49.10
51029;DHT22;37054;52.054;8.600;2023-05-10T13:51:20;29.50;51.10
51029;DHT22;37054;52.054;8.600;2023-05-10T13:53:46;29.00;50.30
51029;DHT22;37054;52.054;8.600;2023-05-10T13:56:12;28.60;51.50
51029;DHT22;37054;52.054;8.600;2023-05-10T13:58:38;28.30;52.10
51029;DHT22;37054;52.054;8.600;2023-05-10T14:01:03;27.90;52.60
51029;DHT22;37054;52.054;8.600;2023-05-10T14:03:30;27.80;52.50
51029;DHT22;37054;52.054;8.600;2023-05-10T14:05:55;27.50;54.10
51029;DHT22;37054;52.054;8.600;2023-05-10T14:08:21;27.30;55.00
51029;DHT22;37054;52.054;8.600;2023-05-10T14:10:46;27.20;55.70
51029;DHT22;37054;52.054;8.600;2023-05-10T14:13:12;27.10;56.50
51029;DHT22;37054;52.054;8.600;2023-05-10T14:15:37;26.90;56.70
51029;DHT22;37054;52.054;8.600;2023-05-10T14:18:03;26.60;58.00
51029;DHT22;37054;52.054;8.600;2023-05-10T14:20:28;26.20;57.40
51029;DHT22;37054;52.054;8.600;2023-05-10T14:22:54;25.70;58.70
51029;DHT22;37054;52.054;8.600;2023-05-10T14:25:19;25.30;58.50
51029;DHT22;37054;52.054;8.600;2023-05-10T14:27:45;24.80;58.80
51029;DHT22;37054;52.054;8.600;2023-05-10T14:30:10;24.50;60.00
51029;DHT22;37054;52.054;8.600;2023-05-10T14:32:36;24.20;60.90
51029;DHT22;37054;52.054;8.600;2023-05-10T14:35:02;23.90;61.80
51029;DHT22;37054;52.054;8.600;2023-05-10T14:37:28;23.70;62.60
51029;DHT22;37054;52.054;8.600;2023-05-10T14:39:53;23.50;63.40
51029;DHT22;37054;52.054;8.600;2023-05-10T14:42:19;23.30;62.90
51029;DHT22;37054;52.054;8.600;2023-05-10T14:44:44;23.10;63.40
51029;DHT22;37054;52.054;8.600;2023-05-10T14:47:10;23.00;63.90
51029;DHT22;37054;52.054;8.600;2023-05-10T14:49:35;22.90;64.00
51029;DHT22;37054;52.054;8.600;2023-05-10T14:52:00;22.70;64.00
51029;DHT22;37054;52.054;8.600;2023-05-10T14:54:26;22.70;64.30
51029;DHT22;37054;52.054;8.600;2023-05-10T14:56:52;22.60;64.50
51029;DHT22;37054;52.054;8.600;2023-05-10T14:59:17;22.70;64.50
51029;DHT22;37054;52.054;8.600;2023-05-10T15:01:43;22.70;65.10
51029;DHT22;37054;52.054;8.600;2023-05-10T15:04:09;22.80;65.60
51029;DHT22;37054;52.054;8.600;2023-05-10T15:06:34;23.00;65.40
51029;DHT22;37054;52.054;8.600;2023-05-10T15:09:01;23.20;66.00
51029;DHT22;37054;52.054;8.600;2023-05-10T15:11:27;23.30;66.00
51029;DHT22;37054;52.054;8.600;2023-05-10T15:13:52;23.50;66.20
51029;DHT22;37054;52.054;8.600;2023-05-10T15:16:18;23.70;66.40
51029;DHT22;37054;52.054;8.600;2023-05-10T15:18:43;23.80;66.60
51029;DHT22;37054;52.054;8.600;2023-05-10T15:21:09;24.00;66.10
51029;DHT22;37054;52.054;8.600;2023-05-10T15:23:35;24.10;66.20
51029;DHT22;37054;52.054;8.600;2023-05-10T15:26:00;24.30;66.20
51029;DHT22;37054;52.054;8.600;2023-05-10T15:28:26;24.40;66.00
51029;DHT22;37054;52.054;8.600;2023-05-10T15:30:51;24.50;65.70
51029;DHT22;37054;52.054;8.600;2023-05-10T15:33:17;24.50;65.30
51029;DHT22;37054;52.054;8.600;2023-05-10T15:35:42;24.70;65.00
51029;DHT22;37054;52.054;8.600;2023-05-10T15:38:08;24.70;64.90
51029;DHT22;37054;52.054;8.600;2023-05-10T15:40:34;24.80;64.80
51029;DHT22;37054;52.054;8.600;2023-05-10T15:42:59;24.80;64.90
51029;DHT22;37054;52.054;8.600;2023-05-10T15:45:25;24.80;65.00
51029;DHT22;37054;52.054;8.600;2023-05-10T15:47:50;24.80;64.90
51029;DHT22;37054;52.054;8.600;2023-05-10T15:50:16;24.80;65.00
51029;DHT22;37054;52.054;8.600;2023-05-10T15:52:42;24.80;65.20
51029;DHT22;37054;52.054;8.600;2023-05-10T15:55:07;24.80;65.00
51029;DHT22;37054;52.054;8.600;2023-05-10T15:57:37;24.80;64.80
51029;DHT22;37054;52.054;8.600;2023-05-10T16:00:03;24.70;64.50
51029;DHT22;37054;52.054;8.600;2023-05-10T16:02:29;24.60;64.50